createdAt,value
2019-05-16T00:00:11.651Z,48.50
2019-05-16T00:02:40.775Z,49.00
2019-05-16T00:05:09.747Z,49.30
2019-05-16T00:07:39.215Z,49.20
2019-05-16T00:10:09.188Z,49.30
2019-05-16T00:12:40.031Z,49.30
2019-05-16T00:15:09.783Z,49.30
2019-05-16T00:17:38.995Z,49.70
2019-05-16T00:20:09.553Z,49.70
2019-05-16T00:22:39.447Z,50.30
2019-05-16T00:25:09.625Z,50.60
2019-05-16T00:27:38.894Z,50.70
2019-05-16T00:30:08.931Z,50.60
2019-05-16T00:32:39.175Z,51.10
2019-05-16T00:35:09.406Z,51.10
2019-05-16T00:37:39.189Z,51.00
2019-05-16T00:40:08.582Z,52.10
2019-05-16T00:42:39.215Z,51.50
2019-05-16T00:45:09.572Z,51.40
2019-05-16T00:47:39.226Z,51.40
2019-05-16T00:50:09.278Z,51.30
2019-05-16T00:52:39.506Z,51.70
2019-05-16T00:55:09.066Z,52.30
2019-05-16T00:57:39.474Z,52.00
2019-05-16T01:00:10.209Z,52.10
2019-05-16T01:02:39.348Z,52.20
2019-05-16T01:05:08.840Z,52.20
2019-05-16T01:07:39.221Z,52.20
2019-05-16T01:10:09.364Z,52.50
2019-05-16T01:12:39.069Z,53.00
2019-05-16T01:15:09.914Z,53.00
2019-05-16T01:17:39.330Z,52.70
2019-05-16T01:20:08.830Z,52.50
2019-05-16T01:22:38.551Z,52.60
2019-05-16T01:25:09.318Z,52.50
2019-05-16T01:27:38.863Z,52.10
2019-05-16T01:30:09.145Z,52.10
2019-05-16T01:32:39.233Z,52.00
2019-05-16T01:35:09.448Z,51.70
2019-05-16T01:37:38.670Z,52.00
2019-05-16T01:40:08.650Z,52.00
2019-05-16T01:42:38.695Z,52.00
2019-05-16T01:45:08.757Z,51.80
2019-05-16T01:47:39.245Z,52.00
2019-05-16T01:50:10.029Z,51.40
2019-05-16T01:52:39.186Z,50.70
2019-05-16T01:55:08.622Z,51.10
2019-05-16T01:57:39.221Z,51.80
2019-05-16T02:00:09.447Z,51.30
2019-05-16T02:02:38.680Z,51.40
2019-05-16T02:05:08.901Z,51.30
2019-05-16T02:07:38.835Z,50.90
2019-05-16T02:10:08.754Z,50.70
2019-05-16T02:12:38.599Z,50.90
2019-05-16T02:15:09.767Z,50.70
2019-05-16T02:17:39.052Z,50.90
2019-05-16T02:20:08.639Z,50.80
2019-05-16T02:22:38.929Z,51.30
2019-05-16T02:25:09.131Z,51.20
2019-05-16T02:27:40.986Z,51.20
2019-05-16T02:30:12.449Z,51.60
2019-05-16T02:32:41.632Z,51.30
2019-05-16T02:35:12.176Z,51.10
2019-05-16T02:37:42.566Z,50.90
2019-05-16T02:40:12.512Z,50.60
2019-05-16T02:42:42.357Z,50.80
2019-05-16T02:45:12.105Z,50.20
2019-05-16T02:47:42.566Z,50.70
2019-05-16T02:50:12.837Z,50.70
2019-05-16T02:52:42.047Z,50.40
2019-05-16T02:55:12.251Z,50.30
2019-05-16T02:57:41.992Z,50.50
2019-05-16T03:00:12.331Z,50.50
2019-05-16T03:02:42.351Z,50.40
2019-05-16T03:05:12.774Z,51.00
2019-05-16T03:07:47.126Z,50.30
2019-05-16T03:10:14.658Z,49.50
2019-05-16T03:12:45.869Z,50.10
2019-05-16T03:15:15.117Z,50.20
2019-05-16T03:17:44.352Z,49.70
2019-05-16T03:20:12.637Z,50.00
2019-05-16T03:22:42.891Z,49.50
2019-05-16T03:25:12.149Z,49.00
2019-05-16T03:27:41.777Z,49.10
2019-05-16T03:30:15.763Z,49.20
2019-05-16T03:32:45.298Z,48.80
2019-05-16T03:35:15.626Z,49.30
2019-05-16T03:37:54.988Z,49.10
2019-05-16T03:40:17.645Z,49.00
2019-05-16T03:42:46.765Z,49.20
2019-05-16T03:45:14.553Z,48.80
2019-05-16T03:47:43.629Z,48.30
2019-05-16T03:50:12.366Z,48.50
2019-05-16T03:52:43.303Z,48.80
2019-05-16T03:55:11.303Z,48.80
2019-05-16T03:57:41.764Z,48.20
2019-05-16T04:00:12.513Z,48.20
2019-05-16T04:02:45.677Z,47.40
2019-05-16T04:05:12.836Z,47.40
2019-05-16T04:07:41.707Z,47.50
2019-05-16T04:10:11.390Z,47.50
2019-05-16T04:12:42.021Z,47.40
2019-05-16T04:15:11.897Z,47.50
2019-05-16T04:17:41.555Z,46.40
2019-05-16T04:20:11.860Z,46.90
2019-05-16T04:22:41.304Z,46.40
2019-05-16T04:25:11.364Z,46.40
2019-05-16T04:27:41.535Z,45.90
2019-05-16T04:30:12.093Z,45.50
2019-05-16T04:32:42.174Z,45.40
2019-05-16T04:35:11.789Z,46.00
2019-05-16T04:37:42.102Z,45.00
2019-05-16T04:40:12.590Z,45.30
2019-05-16T04:42:42.137Z,44.70
2019-05-16T04:45:12.192Z,45.10
2019-05-16T04:47:41.717Z,43.80
2019-05-16T04:50:12.107Z,44.00
2019-05-16T04:52:42.190Z,44.10
2019-05-16T04:55:12.296Z,43.40
2019-05-16T04:57:42.475Z,43.60
2019-05-16T05:00:12.926Z,43.80
2019-05-16T05:02:42.196Z,43.70
2019-05-16T05:05:12.525Z,44.70
2019-05-16T05:07:40.802Z,44.50
2019-05-16T05:10:11.298Z,45.00
2019-05-16T05:12:41.233Z,44.50
2019-05-16T05:15:11.714Z,44.10
2019-05-16T05:17:41.526Z,44.60
2019-05-16T05:20:11.283Z,44.70
2019-05-16T05:22:40.443Z,44.40
2019-05-16T05:25:10.916Z,45.00
2019-05-16T05:27:41.300Z,44.50
2019-05-16T05:30:11.035Z,44.30
2019-05-16T05:32:41.311Z,44.30
2019-05-16T05:35:11.352Z,44.40
2019-05-16T05:37:40.975Z,44.40
2019-05-16T05:40:10.966Z,45.00
2019-05-16T05:42:40.962Z,44.80
2019-05-16T05:45:11.120Z,44.70
2019-05-16T05:47:40.600Z,45.10
2019-05-16T05:50:11.152Z,44.80
2019-05-16T05:52:41.169Z,44.80
2019-05-16T05:55:10.936Z,44.80
2019-05-16T05:57:40.619Z,44.70
2019-05-16T06:00:10.935Z,44.60
2019-05-16T06:02:40.453Z,44.90
2019-05-16T06:05:10.708Z,44.60
2019-05-16T06:07:40.617Z,44.20
2019-05-16T06:10:10.923Z,44.10
2019-05-16T06:12:40.797Z,43.60
2019-05-16T06:15:12.865Z,43.80
2019-05-16T06:17:41.458Z,43.90
2019-05-16T06:20:14.662Z,44.20
2019-05-16T06:22:40.299Z,44.30
2019-05-16T06:25:13.087Z,44.30
2019-05-16T06:27:40.913Z,44.70
2019-05-16T06:30:11.599Z,44.10
2019-05-16T06:32:40.773Z,44.70
2019-05-16T06:35:09.847Z,44.50
2019-05-16T06:37:40.642Z,45.20
2019-05-16T06:40:10.914Z,44.90
2019-05-16T06:42:40.519Z,45.00
2019-05-16T06:45:10.393Z,45.50
2019-05-16T06:47:39.700Z,44.30
2019-05-16T06:50:11.320Z,44.40
2019-05-16T06:52:40.977Z,43.70
2019-05-16T06:55:10.446Z,43.50
2019-05-16T06:57:40.942Z,42.80
2019-05-16T07:00:11.106Z,43.20
2019-05-16T07:02:41.013Z,42.50
2019-05-16T07:05:10.422Z,42.40
2019-05-16T07:07:40.449Z,43.00
2019-05-16T07:10:10.644Z,43.10
2019-05-16T07:12:41.342Z,41.50
2019-05-16T07:15:12.354Z,41.10
2019-05-16T07:17:41.943Z,41.70
2019-05-16T07:20:10.552Z,41.60
2019-05-16T07:22:40.426Z,40.70
2019-05-16T07:25:10.613Z,39.80
2019-05-16T07:27:40.272Z,40.70
2019-05-16T07:30:12.426Z,40.30
2019-05-16T07:32:41.353Z,39.60
2019-05-16T07:35:09.770Z,39.90
2019-05-16T07:37:39.918Z,40.10
2019-05-16T07:40:19.138Z,40.30
2019-05-16T07:42:40.353Z,41.10
2019-05-16T07:45:11.377Z,42.20
2019-05-16T07:47:40.668Z,43.10
2019-05-16T07:50:10.501Z,45.20
2019-05-16T07:52:40.219Z,45.10
2019-05-16T07:55:10.788Z,45.00
2019-05-16T07:57:40.128Z,46.80
2019-05-16T08:00:10.260Z,45.80
2019-05-16T08:02:40.276Z,46.50
2019-05-16T08:05:10.529Z,46.70
2019-05-16T08:07:40.705Z,47.40
2019-05-16T08:10:10.988Z,46.70
2019-05-16T08:12:40.913Z,47.90
2019-05-16T08:15:10.499Z,49.20
2019-05-16T08:17:41.499Z,48.20
2019-05-16T08:20:11.194Z,49.00
2019-05-16T08:22:41.631Z,50.60
2019-05-16T08:25:11.993Z,51.40
2019-05-16T08:30:12.411Z,52.00
2019-05-16T08:35:12.437Z,52.10
2019-05-16T08:37:46.641Z,50.50
2019-05-16T08:40:13.102Z,51.60
2019-05-16T08:42:42.351Z,50.50
2019-05-16T08:45:12.942Z,50.60
2019-05-16T08:47:42.638Z,51.30
2019-05-16T08:50:14.388Z,49.20
2019-05-16T08:52:43.795Z,51.90
2019-05-16T08:55:13.904Z,50.80
2019-05-16T08:57:43.150Z,50.60
2019-05-16T09:00:14.496Z,50.20
2019-05-16T09:02:42.363Z,51.60
2019-05-16T09:05:13.519Z,53.10
2019-05-16T09:07:42.594Z,53.80
2019-05-16T09:10:40.142Z,50.60
2019-05-16T09:10:41.377Z,50.30
2019-05-16T09:12:41.030Z,53.50
2019-05-16T09:15:09.497Z,54.90
2019-05-16T09:17:38.617Z,54.40
2019-05-16T09:18:38.285Z,53.50
2019-05-16T09:20:07.892Z,55.90
2019-05-16T09:22:37.859Z,55.10
2019-05-16T09:25:08.170Z,55.10
2019-05-16T09:27:38.155Z,54.60
2019-05-16T09:30:08.506Z,54.30
2019-05-16T09:32:42.303Z,54.60
2019-05-16T09:35:08.839Z,53.30
2019-05-16T09:37:38.051Z,53.00
2019-05-16T09:40:07.308Z,54.10
2019-05-16T09:42:37.209Z,53.50
2019-05-16T09:45:08.063Z,53.70
2019-05-16T09:47:38.952Z,52.70
2019-05-16T09:50:09.176Z,52.80
2019-05-16T09:52:38.161Z,53.30
2019-05-16T09:55:07.096Z,52.50
2019-05-16T09:57:37.739Z,51.20
2019-05-16T10:00:12.435Z,51.30
2019-05-16T10:02:42.019Z,50.80
2019-05-16T10:05:13.496Z,50.30
2019-05-16T10:07:42.663Z,50.50
2019-05-16T10:10:13.369Z,50.50
2019-05-16T10:12:42.296Z,50.90
2019-05-16T10:15:10.497Z,51.60
2019-05-16T10:17:39.528Z,52.60
2019-05-16T10:20:08.912Z,52.00
2019-05-16T10:22:37.690Z,53.20
2019-05-16T10:25:06.541Z,52.40
2019-05-16T10:27:36.728Z,51.70
2019-05-16T10:30:08.735Z,53.10
2019-05-16T10:32:39.767Z,57.00
2019-05-16T10:35:08.921Z,60.00
2019-05-16T10:37:37.765Z,61.60
2019-05-16T10:40:07.271Z,62.10
2019-05-16T10:42:37.927Z,61.90
2019-05-16T10:45:08.898Z,64.70
2019-05-16T10:47:37.922Z,67.20
2019-05-16T10:50:07.731Z,69.40
2019-05-16T10:52:36.937Z,70.80
2019-05-16T10:55:08.144Z,72.30
2019-05-16T10:57:37.992Z,73.10
2019-05-16T11:00:16.482Z,74.70
2019-05-16T11:02:39.481Z,77.30
2019-05-16T11:05:25.810Z,80.00
2019-05-16T11:07:40.025Z,78.00
2019-05-16T11:10:09.886Z,79.70
2019-05-16T11:12:49.978Z,82.00
2019-05-16T11:15:11.433Z,85.70
2019-05-16T11:17:40.680Z,86.80
2019-05-16T11:20:08.761Z,86.00
2019-05-16T11:22:37.601Z,88.10
2019-05-16T11:25:21.279Z,90.60
2019-05-16T11:27:40.079Z,91.30
2019-05-16T11:30:09.746Z,92.10
2019-05-16T11:32:38.903Z,93.00
2019-05-16T11:35:08.207Z,91.60
2019-05-16T11:37:37.749Z,90.80
2019-05-16T11:40:08.352Z,90.30
2019-05-16T11:42:38.045Z,91.40
2019-05-16T11:45:10.892Z,91.50
2019-05-16T11:47:40.236Z,88.40
2019-05-16T11:50:08.799Z,90.80
2019-05-16T11:52:40.487Z,91.20
2019-05-16T11:55:08.965Z,93.10
2019-05-16T11:57:38.212Z,90.90
2019-05-16T12:00:08.238Z,91.10
2019-05-16T12:02:38.902Z,90.50
2019-05-16T12:05:08.165Z,87.90
2019-05-16T12:07:44.106Z,90.90
2019-05-16T12:10:09.197Z,91.00
2019-05-16T12:12:38.341Z,92.30
2019-05-16T12:15:07.808Z,91.50
2019-05-16T12:17:36.784Z,92.30
2019-05-16T12:20:08.090Z,91.10
2019-05-16T12:22:37.704Z,91.70
2019-05-16T12:25:08.272Z,93.10
2019-05-16T12:27:42.406Z,93.00
2019-05-16T12:30:13.825Z,93.00
2019-05-16T12:32:40.384Z,91.80
2019-05-16T12:35:08.443Z,91.70
2019-05-16T12:37:37.557Z,91.30
2019-05-16T12:40:08.063Z,92.40
2019-05-16T12:42:37.964Z,92.50
2019-05-16T12:45:10.520Z,92.60
2019-05-16T12:47:39.673Z,93.90
2019-05-16T12:50:10.279Z,93.00
2019-05-16T12:52:40.061Z,94.30
2019-05-16T12:55:09.834Z,92.80
2019-05-16T12:57:39.092Z,92.70
2019-05-16T13:00:14.540Z,93.50
2019-05-16T13:02:38.809Z,94.30
2019-05-16T13:05:07.928Z,93.30
2019-05-16T13:07:37.738Z,91.00
2019-05-16T13:10:07.807Z,93.10
2019-05-16T13:12:37.760Z,92.70
2019-05-16T13:15:08.998Z,91.90
2019-05-16T13:17:37.971Z,92.70
2019-05-16T13:20:07.800Z,90.70
2019-05-16T13:22:38.404Z,91.30
2019-05-16T13:25:08.048Z,90.60
2019-05-16T13:27:37.491Z,90.20
2019-05-16T13:30:09.164Z,86.80
2019-05-16T13:32:38.171Z,87.60
2019-05-16T13:35:07.931Z,83.90
2019-05-16T13:37:36.925Z,82.20
2019-05-16T13:40:08.196Z,75.60
2019-05-16T13:42:37.262Z,75.50
2019-05-16T13:45:07.613Z,71.40
2019-05-16T13:47:37.716Z,68.30
2019-05-16T13:50:12.177Z,66.30
2019-05-16T13:52:39.153Z,66.60
2019-05-16T13:55:08.613Z,63.70
2019-05-16T13:57:37.540Z,66.70
2019-05-16T14:00:09.412Z,64.60
2019-05-16T14:02:38.458Z,63.00
2019-05-16T14:05:08.265Z,63.00
2019-05-16T14:07:37.612Z,63.10
2019-05-16T14:10:08.336Z,63.00
2019-05-16T14:12:37.200Z,63.30
2019-05-16T14:15:08.395Z,63.90
2019-05-16T14:17:37.462Z,65.20
2019-05-16T14:20:14.547Z,66.30
2019-05-16T14:22:38.988Z,66.10
2019-05-16T14:25:08.575Z,67.10
2019-05-16T14:27:38.333Z,66.60
2019-05-16T14:30:10.885Z,67.80
2019-05-16T14:32:43.044Z,67.70
2019-05-16T14:35:10.819Z,67.70
2019-05-16T14:37:39.691Z,67.40
2019-05-16T14:40:07.983Z,68.40
2019-05-16T14:42:38.845Z,67.00
2019-05-16T14:45:16.968Z,67.00
2019-05-16T14:47:47.548Z,68.50
2019-05-16T14:50:17.549Z,67.60
2019-05-16T14:52:47.542Z,68.40
2019-05-16T14:55:18.357Z,68.60
2019-05-16T14:57:48.010Z,68.40
2019-05-16T15:00:18.538Z,68.70
2019-05-16T15:02:48.386Z,68.80
2019-05-16T15:05:17.730Z,68.50
2019-05-16T15:07:48.071Z,68.90
2019-05-16T15:10:16.524Z,69.50
2019-05-16T15:12:46.733Z,69.30
2019-05-16T15:15:23.384Z,69.10
2019-05-16T15:17:49.017Z,69.80
2019-05-16T15:20:18.475Z,68.80
2019-05-16T15:22:47.585Z,69.40
2019-05-16T15:25:17.539Z,69.00
2019-05-16T15:27:47.864Z,67.80
2019-05-16T15:30:17.686Z,68.60
2019-05-16T15:32:48.151Z,68.80
2019-05-16T15:35:18.262Z,68.90
2019-05-16T15:37:48.394Z,69.00
2019-05-16T15:40:18.108Z,69.00
2019-05-16T15:42:47.065Z,69.40
2019-05-16T15:45:19.254Z,70.60
2019-05-16T15:47:47.798Z,72.80
2019-05-16T15:50:18.187Z,74.60
2019-05-16T15:52:47.727Z,77.50
2019-05-16T15:55:17.836Z,78.70
2019-05-16T15:57:47.705Z,79.10
2019-05-16T16:00:20.225Z,81.50
2019-05-16T16:02:49.386Z,83.20
2019-05-16T16:05:18.179Z,83.70
2019-05-16T16:07:48.214Z,86.50
2019-05-16T16:10:20.659Z,85.90
2019-05-16T16:12:49.859Z,86.30
2019-05-16T16:15:17.655Z,88.50
2019-05-16T16:17:46.931Z,89.30
2019-05-16T16:20:16.885Z,90.20
2019-05-16T16:22:46.943Z,91.50
2019-05-16T16:25:17.601Z,91.50
2019-05-16T16:27:47.066Z,92.00
2019-05-16T16:30:15.116Z,91.70
2019-05-16T16:32:44.054Z,91.80
2019-05-16T16:35:14.207Z,92.20
2019-05-16T16:37:46.777Z,93.10
2019-05-16T16:40:17.567Z,93.10
2019-05-16T16:42:47.515Z,92.90
2019-05-16T16:45:17.406Z,93.00
2019-05-16T16:47:47.018Z,93.10
2019-05-16T16:50:17.207Z,94.40
2019-05-16T16:52:47.499Z,94.60
2019-05-16T16:55:17.225Z,94.90
2019-05-16T16:57:47.293Z,95.30
2019-05-16T17:00:17.708Z,95.60
2019-05-16T17:03:01.678Z,95.80
2019-05-16T17:05:18.147Z,96.10
2019-05-16T17:07:48.707Z,96.30
2019-05-16T17:10:18.543Z,95.90
2019-05-16T17:12:47.674Z,95.80
2019-05-16T17:15:17.113Z,95.80
2019-05-16T17:17:46.677Z,96.50
2019-05-16T17:20:16.771Z,97.30
2019-05-16T17:22:46.720Z,98.20
2019-05-16T17:25:16.260Z,97.80
2019-05-16T17:27:46.849Z,97.90
2019-05-16T17:30:19.417Z,97.40
2019-05-16T17:32:48.706Z,97.90
2019-05-16T17:35:18.744Z,97.40
2019-05-16T17:37:48.786Z,97.00
2019-05-16T17:40:19.292Z,97.60
2019-05-16T17:42:48.461Z,98.40
2019-05-16T17:45:17.987Z,98.20
2019-05-16T17:47:47.311Z,98.10
2019-05-16T17:50:17.399Z,98.00
2019-05-16T17:52:47.728Z,97.00
2019-05-16T17:55:18.260Z,98.50
2019-05-16T17:57:47.444Z,98.80
2019-05-16T18:00:24.233Z,98.90
2019-05-16T18:02:46.516Z,99.50
2019-05-16T18:05:17.027Z,99.50
2019-05-16T18:07:47.466Z,99.90
2019-05-16T18:10:17.196Z,99.90
2019-05-16T18:12:48.009Z,99.90
2019-05-16T18:15:20.383Z,99.90
2019-05-16T18:17:49.554Z,99.60
2019-05-16T18:20:17.723Z,99.90
2019-05-16T18:22:47.164Z,99.80
2019-05-16T18:25:16.700Z,99.80
2019-05-16T18:27:46.066Z,99.90
2019-05-16T18:30:16.763Z,99.90
2019-05-16T18:32:46.036Z,99.90
2019-05-16T18:35:16.759Z,99.90
2019-05-16T18:37:46.530Z,99.50
2019-05-16T18:40:16.782Z,99.20
2019-05-16T18:42:47.654Z,99.80
2019-05-16T18:45:17.731Z,99.10
2019-05-16T18:47:46.990Z,99.90
2019-05-16T18:50:18.101Z,99.90
2019-05-16T18:52:47.487Z,99.90
2019-05-16T18:55:17.051Z,99.90
2019-05-16T18:57:47.218Z,99.90
2019-05-16T19:00:17.843Z,99.90
2019-05-16T19:02:47.877Z,99.90
2019-05-16T19:05:17.690Z,99.90
2019-05-16T19:07:47.591Z,99.90
2019-05-16T19:10:17.765Z,99.90
2019-05-16T19:12:47.791Z,99.90
2019-05-16T19:15:17.940Z,99.90
2019-05-16T19:17:47.432Z,99.90
2019-05-16T19:20:17.367Z,99.90
2019-05-16T19:22:46.317Z,99.90
2019-05-16T19:25:14.540Z,99.90
2019-05-16T19:27:46.292Z,99.90
2019-05-16T19:30:15.734Z,99.90
2019-05-16T19:32:46.873Z,99.90
2019-05-16T19:35:16.469Z,99.90
2019-05-16T19:37:47.022Z,99.90
2019-05-16T19:40:17.827Z,99.90
2019-05-16T19:42:47.343Z,99.90
2019-05-16T19:45:17.143Z,99.90
2019-05-16T19:47:47.754Z,99.90
2019-05-16T19:50:17.840Z,99.90
2019-05-16T19:52:47.305Z,99.90
2019-05-16T19:55:16.733Z,99.90
2019-05-16T19:57:46.518Z,99.90
2019-05-16T20:00:17.184Z,99.90
2019-05-16T20:02:49.094Z,99.90
2019-05-16T20:05:19.785Z,99.90
2019-05-16T20:07:48.898Z,99.90
2019-05-16T20:10:18.172Z,99.90
2019-05-16T20:12:47.276Z,99.90
2019-05-16T20:15:17.300Z,99.90
2019-05-16T20:17:56.210Z,99.90
2019-05-16T20:20:18.731Z,99.90
2019-05-16T20:22:48.082Z,99.90
2019-05-16T20:25:17.582Z,99.90
2019-05-16T20:27:47.160Z,99.90
2019-05-16T20:30:17.253Z,99.90
2019-05-16T20:32:46.139Z,99.90
2019-05-16T20:35:14.011Z,99.90
2019-05-16T20:37:42.891Z,99.90
2019-05-16T20:40:12.558Z,99.90
2019-05-16T20:42:41.264Z,99.90
2019-05-16T20:45:10.485Z,99.90
2019-05-16T20:47:39.758Z,99.90
2019-05-16T20:50:08.011Z,99.90
2019-05-16T20:52:37.785Z,99.90
2019-05-16T20:55:07.899Z,99.90
2019-05-16T20:57:37.654Z,99.90
2019-05-16T21:00:08.851Z,99.90
2019-05-16T21:02:38.133Z,99.90
2019-05-16T21:05:07.974Z,99.90
2019-05-16T21:07:37.684Z,99.90
2019-05-16T21:10:08.345Z,99.90
2019-05-16T21:12:41.817Z,99.90
2019-05-16T21:15:11.326Z,99.90
2019-05-16T21:17:40.498Z,99.90
2019-05-16T21:20:08.676Z,99.90
2019-05-16T21:22:37.480Z,99.90
2019-05-16T21:25:05.844Z,99.90
2019-05-16T21:27:37.602Z,99.90
2019-05-16T21:30:08.765Z,99.90
2019-05-16T21:32:37.944Z,99.90
2019-05-16T21:35:07.570Z,99.90
2019-05-16T21:37:37.432Z,99.90
2019-05-16T21:40:08.084Z,99.90
2019-05-16T21:42:37.455Z,99.90
2019-05-16T21:45:07.067Z,99.90
2019-05-16T21:47:36.993Z,99.90
2019-05-16T21:50:08.346Z,99.90
2019-05-16T21:52:37.662Z,99.90
2019-05-16T21:55:07.624Z,99.90
2019-05-16T21:57:37.729Z,99.90
2019-05-16T22:00:26.470Z,99.90
2019-05-16T22:02:57.180Z,99.90
2019-05-16T22:05:25.973Z,99.90
2019-05-16T22:07:56.753Z,99.90
2019-05-16T22:10:26.651Z,99.90
2019-05-16T22:12:57.150Z,99.90
2019-05-16T22:15:26.651Z,99.90
2019-05-16T22:17:56.505Z,99.90
2019-05-16T22:20:26.975Z,99.90
2019-05-16T22:22:57.433Z,99.90
2019-05-16T22:25:27.240Z,99.90
2019-05-16T22:27:57.516Z,99.90
2019-05-16T22:30:27.350Z,99.90
2019-05-16T22:32:56.834Z,99.90
2019-05-16T22:35:27.234Z,99.90
2019-05-16T22:37:58.991Z,99.90
2019-05-16T22:40:26.718Z,99.90
2019-05-16T22:42:57.587Z,99.90
2019-05-16T22:45:27.197Z,99.90
2019-05-16T22:47:56.510Z,99.90
2019-05-16T22:50:26.941Z,99.90
2019-05-16T22:52:56.829Z,99.90
2019-05-16T22:55:26.436Z,99.90
2019-05-16T22:57:57.436Z,99.90
2019-05-16T23:00:33.958Z,99.90
2019-05-16T23:03:03.099Z,99.90
2019-05-16T23:05:30.914Z,99.90
2019-05-16T23:08:04.904Z,99.90
2019-05-16T23:10:30.272Z,99.90
2019-05-16T23:12:58.774Z,99.90
2019-05-16T23:15:27.558Z,99.90
2019-05-16T23:17:57.350Z,99.90
2019-05-16T23:20:27.717Z,99.90
2019-05-16T23:22:57.083Z,99.90
2019-05-16T23:25:24.900Z,99.90
2019-05-16T23:27:53.770Z,99.90
2019-05-16T23:30:22.685Z,99.90
2019-05-16T23:32:51.867Z,99.90
2019-05-16T23:35:19.660Z,99.90
2019-05-16T23:37:48.329Z,99.90
2019-05-16T23:40:16.191Z,99.90
2019-05-16T23:42:46.514Z,99.90
2019-05-16T23:45:17.092Z,99.90
2019-05-16T23:47:47.172Z,99.90
2019-05-16T23:50:17.279Z,99.90
2019-05-16T23:52:47.186Z,99.90
2019-05-16T23:55:17.409Z,99.90
2019-05-16T23:57:46.901Z,99.90
